createdAt,value
2017-10-03T00:01:57.485Z,6.40
2017-10-03T00:04:23.766Z,5.10
2017-10-03T00:06:50.061Z,4.00
2017-10-03T00:09:16.354Z,5.23
2017-10-03T00:11:43.397Z,4.40
2017-10-03T00:14:10.415Z,5.40
2017-10-03T00:16:36.718Z,5.30
2017-10-03T00:19:03.009Z,5.03
2017-10-03T00:21:29.293Z,5.00
2017-10-03T00:23:55.588Z,4.30
2017-10-03T00:26:21.864Z,5.00
2017-10-03T00:28:48.922Z,4.40
2017-10-03T00:31:15.209Z,4.30
2017-10-03T00:33:41.501Z,5.67
2017-10-03T00:36:07.834Z,4.47
2017-10-03T00:38:34.132Z,3.90
2017-10-03T00:41:00.430Z,4.67
2017-10-03T00:43:26.741Z,4.53
2017-10-03T00:45:53.042Z,4.13
2017-10-03T00:48:20.094Z,3.77
2017-10-03T00:50:47.131Z,4.30
2017-10-03T00:53:14.198Z,4.00
2017-10-03T00:55:40.497Z,3.63
2017-10-03T00:58:07.559Z,3.93
2017-10-03T01:00:33.860Z,4.53
2017-10-03T01:03:00.161Z,5.10
2017-10-03T01:05:26.481Z,5.00
2017-10-03T01:07:52.776Z,3.93
2017-10-03T01:10:19.827Z,4.13
2017-10-03T01:12:46.863Z,4.63
2017-10-03T01:15:13.918Z,5.30
2017-10-03T01:17:40.949Z,4.50
2017-10-03T01:20:07.260Z,4.00
2017-10-03T01:22:33.579Z,4.80
2017-10-03T01:24:59.885Z,4.97
2017-10-03T01:27:26.170Z,4.40
2017-10-03T01:29:52.492Z,5.13
2017-10-03T01:32:18.782Z,4.50
2017-10-03T01:34:45.117Z,4.70
2017-10-03T01:37:11.410Z,4.73
2017-10-03T01:39:37.701Z,4.80
2017-10-03T01:42:04.006Z,4.10
2017-10-03T01:44:30.297Z,5.73
2017-10-03T01:46:57.326Z,4.53
2017-10-03T01:49:23.609Z,4.57
2017-10-03T01:51:49.917Z,5.27
2017-10-03T01:54:16.789Z,5.10
2017-10-03T01:56:43.074Z,4.67
2017-10-03T01:59:09.361Z,3.93
2017-10-03T02:01:35.646Z,4.03
2017-10-03T02:04:02.667Z,3.70
2017-10-03T02:06:29.735Z,4.30
2017-10-03T02:08:56.046Z,4.57
2017-10-03T02:11:22.342Z,4.10
2017-10-03T02:13:48.624Z,3.90
2017-10-03T02:16:14.912Z,5.07
2017-10-03T02:18:41.218Z,4.20
2017-10-03T02:21:07.541Z,3.87
2017-10-03T02:23:33.846Z,4.10
2017-10-03T02:26:00.136Z,3.80
2017-10-03T02:28:26.430Z,4.60
2017-10-03T02:30:52.706Z,3.70
2017-10-03T02:33:19.760Z,3.30
2017-10-03T02:35:46.789Z,4.50
2017-10-03T02:38:13.084Z,4.50
2017-10-03T02:40:39.369Z,3.97
2017-10-03T02:43:06.408Z,3.90
2017-10-03T02:45:32.707Z,4.60
2017-10-03T02:47:58.997Z,3.97
2017-10-03T02:50:25.293Z,5.10
2017-10-03T02:52:51.574Z,4.33
2017-10-03T02:55:17.871Z,4.00
2017-10-03T02:57:44.167Z,4.03
2017-10-03T03:00:10.452Z,3.63
2017-10-03T03:02:36.747Z,4.83
2017-10-03T03:05:03.776Z,3.87
2017-10-03T03:07:30.069Z,4.37
2017-10-03T03:09:56.350Z,3.83
2017-10-03T03:12:22.640Z,4.50
2017-10-03T03:14:48.945Z,4.17
2017-10-03T03:17:15.216Z,4.30
2017-10-03T03:19:41.502Z,4.47
2017-10-03T03:22:07.774Z,3.60
2017-10-03T03:24:34.063Z,4.47
2017-10-03T03:27:00.352Z,3.73
2017-10-03T03:29:26.664Z,3.87
2017-10-03T03:31:52.959Z,4.67
2017-10-03T03:34:19.253Z,3.67
2017-10-03T03:36:48.148Z,4.73
2017-10-03T03:39:15.165Z,4.77
2017-10-03T03:41:41.461Z,4.10
2017-10-03T03:44:09.263Z,4.20
2017-10-03T03:46:35.566Z,5.07
2017-10-03T03:49:01.860Z,4.90
2017-10-03T03:51:28.175Z,5.07
2017-10-03T03:53:55.213Z,4.10
2017-10-03T03:56:22.290Z,4.50
2017-10-03T03:58:48.558Z,5.17
2017-10-03T04:01:14.849Z,4.67
2017-10-03T04:03:41.133Z,5.13
2017-10-03T04:06:07.414Z,4.73
2017-10-03T04:08:33.683Z,4.20
2017-10-03T04:11:00.016Z,4.97
2017-10-03T04:13:26.302Z,4.73
2017-10-03T04:15:52.583Z,4.43
2017-10-03T04:18:18.882Z,4.37
2017-10-03T04:20:45.189Z,6.43
2017-10-03T04:23:11.515Z,4.60
2017-10-03T04:25:37.839Z,4.43
2017-10-03T04:28:04.911Z,4.43
2017-10-03T04:30:31.183Z,5.10
2017-10-03T04:32:57.481Z,5.17
2017-10-03T04:35:23.754Z,4.30
2017-10-03T04:37:50.785Z,4.63
2017-10-03T04:40:17.060Z,4.97
2017-10-03T04:42:43.354Z,4.80
2017-10-03T04:45:09.630Z,4.70
2017-10-03T04:47:35.929Z,4.80
2017-10-03T04:50:02.961Z,5.07
2017-10-03T04:52:29.234Z,4.53
2017-10-03T04:54:55.514Z,5.40
2017-10-03T04:57:22.539Z,5.83
2017-10-03T04:59:48.814Z,4.70
2017-10-03T05:02:15.835Z,5.37
2017-10-03T05:04:42.888Z,5.80
2017-10-03T05:07:09.179Z,5.07
2017-10-03T05:09:35.481Z,5.17
2017-10-03T05:12:01.767Z,5.40
2017-10-03T05:14:29.533Z,4.93
2017-10-03T05:16:55.819Z,4.90
2017-10-03T05:19:22.109Z,5.20
2017-10-03T05:21:49.129Z,5.00
2017-10-03T05:24:15.417Z,5.90
2017-10-03T05:26:41.691Z,5.00
2017-10-03T05:29:08.005Z,5.33
2017-10-03T05:31:34.305Z,5.03
2017-10-03T05:34:00.605Z,4.70
2017-10-03T05:36:27.644Z,4.70
2017-10-03T05:38:53.934Z,4.60
2017-10-03T05:41:20.242Z,4.27
2017-10-03T05:43:46.510Z,4.23
2017-10-03T05:46:12.834Z,5.03
2017-10-03T05:48:39.909Z,4.57
2017-10-03T05:51:06.990Z,6.30
2017-10-03T05:53:33.389Z,4.50
2017-10-03T05:56:00.489Z,4.80
2017-10-03T05:58:26.804Z,4.57
2017-10-03T06:00:53.122Z,5.33
2017-10-03T06:03:19.453Z,5.67
2017-10-03T06:05:45.785Z,5.80
2017-10-03T06:08:12.082Z,5.37
2017-10-03T06:10:39.121Z,4.67
2017-10-03T06:13:06.160Z,5.83
2017-10-03T06:15:32.529Z,5.10
2017-10-03T06:17:59.544Z,5.27
2017-10-03T06:20:25.844Z,5.30
2017-10-03T06:22:52.157Z,5.57
2017-10-03T06:25:18.436Z,4.97
2017-10-03T06:27:45.494Z,5.17
2017-10-03T06:30:12.526Z,4.83
2017-10-03T06:32:39.662Z,4.80
2017-10-03T06:35:06.006Z,4.73
2017-10-03T06:37:32.341Z,4.60
2017-10-03T06:39:58.674Z,4.63
2017-10-03T06:42:25.324Z,4.30
2017-10-03T06:44:52.343Z,4.63
2017-10-03T06:47:18.654Z,4.30
2017-10-03T06:49:44.968Z,4.20
2017-10-03T06:52:11.290Z,4.83
2017-10-03T06:54:37.613Z,5.60
2017-10-03T06:57:03.925Z,5.07
2017-10-03T06:59:30.953Z,4.90
2017-10-03T07:01:58.029Z,4.90
2017-10-03T07:04:24.323Z,4.53
2017-10-03T07:06:50.613Z,5.77
2017-10-03T07:09:16.946Z,5.57
2017-10-03T07:11:43.229Z,5.70
2017-10-03T07:14:10.275Z,5.70
2017-10-03T07:16:37.310Z,6.23
2017-10-03T07:19:04.387Z,7.10
2017-10-03T07:21:30.685Z,6.77
2017-10-03T07:23:57.748Z,5.90
2017-10-03T07:26:24.791Z,6.57
2017-10-03T07:28:51.873Z,5.90
2017-10-03T07:31:19.136Z,6.70
2017-10-03T07:33:45.429Z,7.87
2017-10-03T07:36:11.729Z,7.30
2017-10-03T07:38:38.033Z,6.70
2017-10-03T07:41:04.329Z,7.17
2017-10-03T07:43:30.628Z,6.80
2017-10-03T07:45:56.910Z,7.00
2017-10-03T07:48:23.216Z,6.80
2017-10-03T07:50:50.277Z,6.93
2017-10-03T07:53:16.589Z,7.60
2017-10-03T07:55:42.925Z,6.63
2017-10-03T07:58:09.251Z,7.57
2017-10-03T08:00:35.633Z,6.63
2017-10-03T08:03:01.946Z,7.57
2017-10-03T08:05:28.277Z,7.67
2017-10-03T08:07:54.576Z,7.60
2017-10-03T08:10:20.874Z,8.07
2017-10-03T08:12:49.596Z,7.70
2017-10-03T08:15:16.078Z,8.87
2017-10-03T08:17:42.396Z,7.80
2017-10-03T08:20:08.718Z,8.10
2017-10-03T08:22:35.016Z,7.87
2017-10-03T08:25:01.334Z,6.97
2017-10-03T08:27:28.372Z,7.07
2017-10-03T08:29:55.424Z,7.67
2017-10-03T08:32:21.725Z,7.43
2017-10-03T08:34:48.791Z,7.60
2017-10-03T08:37:15.897Z,7.40
2017-10-03T08:39:42.204Z,7.50
2017-10-03T08:42:08.506Z,8.30
2017-10-03T08:44:34.902Z,7.43
2017-10-03T08:47:01.243Z,7.83
2017-10-03T08:49:27.550Z,8.47
2017-10-03T08:51:53.842Z,8.63
2017-10-03T08:54:20.143Z,8.00
2017-10-03T08:56:47.506Z,8.67
2017-10-03T08:59:14.532Z,8.57
2017-10-03T09:01:40.817Z,8.47
2017-10-03T09:04:07.126Z,8.47
2017-10-03T09:06:33.435Z,8.27
2017-10-03T09:08:59.717Z,8.07
2017-10-03T09:11:26.025Z,7.67
2017-10-03T09:13:52.343Z,7.60
2017-10-03T09:16:19.376Z,8.50
2017-10-03T09:18:45.650Z,8.00
2017-10-03T09:21:11.965Z,8.83
2017-10-03T09:23:38.259Z,8.37
2017-10-03T09:26:04.558Z,7.60
2017-10-03T09:28:30.859Z,8.20
2017-10-03T09:30:57.134Z,7.27
2017-10-03T09:33:23.501Z,7.80
2017-10-03T09:35:50.555Z,7.50
2017-10-03T09:38:16.857Z,8.30
2017-10-03T09:40:43.889Z,7.83
2017-10-03T09:43:10.173Z,7.80
2017-10-03T09:45:36.461Z,8.10
2017-10-03T09:48:03.577Z,8.17
2017-10-03T09:50:30.789Z,7.23
2017-10-03T09:52:57.096Z,7.20
2017-10-03T09:55:24.134Z,6.80
2017-10-03T09:57:51.249Z,6.80
2017-10-03T10:00:17.547Z,7.07
2017-10-03T10:02:46.243Z,7.00
2017-10-03T10:05:12.561Z,7.17
2017-10-03T10:07:38.883Z,7.80
2017-10-03T10:10:05.207Z,7.30
2017-10-03T10:12:32.284Z,7.80
2017-10-03T10:14:58.615Z,8.90
2017-10-03T10:17:25.014Z,8.13
2017-10-03T10:19:51.349Z,7.67
2017-10-03T10:22:18.390Z,8.30
2017-10-03T10:24:45.458Z,8.10
2017-10-03T10:27:11.793Z,7.70
2017-10-03T10:29:38.154Z,8.57
2017-10-03T10:32:04.500Z,7.50
2017-10-03T10:34:31.604Z,6.67
2017-10-03T10:36:57.923Z,7.10
2017-10-03T10:39:24.245Z,6.30
2017-10-03T10:41:50.540Z,6.80
2017-10-03T10:44:17.588Z,5.97
2017-10-03T10:46:43.928Z,6.70
2017-10-03T10:49:10.264Z,5.80
2017-10-03T10:51:36.585Z,5.37
2017-10-03T10:54:02.945Z,5.20
2017-10-03T10:56:29.288Z,4.40
2017-10-03T10:58:55.803Z,4.03
2017-10-03T11:01:22.972Z,4.37
2017-10-03T11:03:49.325Z,3.53
2017-10-03T11:06:15.642Z,3.40
2017-10-03T11:08:42.076Z,3.40
2017-10-03T11:11:08.443Z,3.00
2017-10-03T11:13:34.766Z,3.13
2017-10-03T11:16:01.264Z,2.87
2017-10-03T11:18:27.791Z,2.30
2017-10-03T11:20:54.122Z,1.93
2017-10-03T11:23:33.109Z,1.73
2017-10-03T11:25:59.525Z,1.50
2017-10-03T11:28:25.838Z,1.60
2017-10-03T11:30:52.153Z,1.93
2017-10-03T11:33:18.538Z,2.30
2017-10-03T11:35:44.866Z,2.53
2017-10-03T11:38:11.941Z,1.57
2017-10-03T11:40:38.273Z,1.63
2017-10-03T11:43:05.310Z,2.40
2017-10-03T11:45:32.357Z,1.77
2017-10-03T11:47:59.427Z,2.10
2017-10-03T11:50:25.713Z,2.20
2017-10-03T11:52:52.207Z,2.13
2017-10-03T11:55:18.652Z,3.80
2017-10-03T11:57:46.967Z,3.17
2017-10-03T12:00:13.267Z,3.07
2017-10-03T12:02:39.569Z,2.83
2017-10-03T12:05:05.856Z,2.77
2017-10-03T12:07:32.922Z,2.97
2017-10-03T12:09:59.978Z,2.60
2017-10-03T12:12:26.294Z,2.67
2017-10-03T12:14:53.366Z,2.63
2017-10-03T12:17:19.674Z,2.30
2017-10-03T12:19:46.705Z,2.33
2017-10-03T12:22:13.763Z,2.40
2017-10-03T12:24:40.084Z,2.13
2017-10-03T12:27:07.154Z,1.60
2017-10-03T12:29:33.478Z,1.57
2017-10-03T12:31:59.792Z,1.30
2017-10-03T12:34:26.832Z,1.40
2017-10-03T12:36:53.125Z,1.37
2017-10-03T12:39:19.416Z,1.60
2017-10-03T12:41:45.776Z,1.60
2017-10-03T12:44:12.106Z,1.53
2017-10-03T12:46:38.393Z,1.60
2017-10-03T12:49:04.685Z,1.50
2017-10-03T12:51:30.965Z,1.30
2017-10-03T12:53:57.277Z,2.23
2017-10-03T12:56:24.340Z,1.87
2017-10-03T12:58:51.376Z,2.23
2017-10-03T13:01:19.162Z,1.40
2017-10-03T13:03:45.492Z,2.00
2017-10-03T13:06:12.531Z,1.50
2017-10-03T13:08:39.587Z,2.63
2017-10-03T13:11:06.605Z,1.60
2017-10-03T13:13:33.672Z,1.47
2017-10-03T13:16:00.693Z,1.77
2017-10-03T13:18:27.034Z,1.43
2017-10-03T13:20:54.073Z,1.70
2017-10-03T13:23:20.380Z,1.83
2017-10-03T13:25:46.664Z,2.20
2017-10-03T13:28:12.972Z,1.60
2017-10-03T13:30:40.042Z,1.30
2017-10-03T13:33:06.338Z,1.73
2017-10-03T13:35:33.391Z,1.50
2017-10-03T13:38:01.273Z,1.50
2017-10-03T13:40:28.326Z,1.00
2017-10-03T13:42:55.415Z,1.30
2017-10-03T13:45:21.727Z,1.13
2017-10-03T13:47:48.036Z,1.57
2017-10-03T13:50:14.357Z,1.17
2017-10-03T13:52:40.661Z,1.77
2017-10-03T13:55:07.788Z,1.27
2017-10-03T13:57:34.096Z,1.13
2017-10-03T14:00:00.432Z,1.30
2017-10-03T14:02:26.734Z,1.37
2017-10-03T14:04:53.133Z,1.40
2017-10-03T14:07:20.186Z,1.50
2017-10-03T14:09:47.218Z,1.63
2017-10-03T14:12:13.538Z,1.10
2017-10-03T14:14:39.849Z,2.10
2017-10-03T14:17:06.170Z,1.30
2017-10-03T14:19:32.466Z,1.83
2017-10-03T14:21:59.511Z,1.50
2017-10-03T14:24:26.560Z,2.00
2017-10-03T14:26:53.611Z,2.17
2017-10-03T14:29:20.641Z,1.80
2017-10-03T14:31:46.943Z,1.87
2017-10-03T14:34:14.007Z,1.87
2017-10-03T14:36:40.321Z,1.80
2017-10-03T14:39:06.629Z,1.60
2017-10-03T14:41:32.925Z,1.70
2017-10-03T14:44:00.070Z,1.70
2017-10-03T14:46:27.114Z,1.70
2017-10-03T14:48:54.152Z,2.13
2017-10-03T14:51:21.943Z,2.00
2017-10-03T14:53:48.834Z,1.77
2017-10-03T14:56:16.637Z,2.30
2017-10-03T14:58:43.677Z,2.20
2017-10-03T15:01:10.706Z,1.70
2017-10-03T15:03:38.494Z,1.87
2017-10-03T15:06:05.558Z,2.17
2017-10-03T15:08:31.869Z,1.80
2017-10-03T15:10:58.911Z,2.57
2017-10-03T15:13:25.974Z,1.87
2017-10-03T15:15:52.309Z,2.00
2017-10-03T15:18:18.660Z,1.80
2017-10-03T15:20:44.982Z,1.90
2017-10-03T15:23:11.320Z,2.17
2017-10-03T15:25:37.855Z,1.90
2017-10-03T15:28:04.199Z,2.00
2017-10-03T15:30:30.501Z,1.83
2017-10-03T15:32:56.820Z,1.90
2017-10-03T15:35:23.128Z,2.00
2017-10-03T15:37:49.406Z,2.43
2017-10-03T15:40:15.830Z,1.90
2017-10-03T15:42:42.122Z,2.40
2017-10-03T15:45:08.430Z,2.40
2017-10-03T15:47:34.719Z,2.20
2017-10-03T15:50:01.045Z,2.90
2017-10-03T15:52:27.343Z,2.73
2017-10-03T15:54:54.401Z,2.37
2017-10-03T15:57:21.450Z,2.30
2017-10-03T15:59:48.504Z,3.40
2017-10-03T16:02:15.548Z,2.30
2017-10-03T16:04:41.889Z,2.60
2017-10-03T16:07:08.226Z,2.03
2017-10-03T16:09:34.538Z,2.23
2017-10-03T16:12:01.607Z,2.50
2017-10-03T16:14:27.946Z,1.90
2017-10-03T16:16:54.317Z,2.20
2017-10-03T16:19:20.819Z,1.90
2017-10-03T16:21:47.118Z,1.97
2017-10-03T16:24:13.414Z,2.63
2017-10-03T16:26:40.507Z,1.73
2017-10-03T16:29:06.820Z,1.60
2017-10-03T16:31:33.949Z,2.20
2017-10-03T16:34:01.080Z,1.70
2017-10-03T16:36:27.426Z,2.37
2017-10-03T16:38:54.477Z,2.10
2017-10-03T16:41:21.546Z,1.83
2017-10-03T16:43:47.841Z,1.90
2017-10-03T16:46:14.166Z,1.80
2017-10-03T16:48:40.455Z,2.23
2017-10-03T16:51:06.777Z,2.07
2017-10-03T16:53:33.798Z,1.60
2017-10-03T16:56:00.949Z,2.03
2017-10-03T16:58:27.250Z,2.10
2017-10-03T17:00:53.550Z,1.87
2017-10-03T17:03:19.847Z,2.10
2017-10-03T17:05:47.727Z,2.40
2017-10-03T17:08:15.090Z,2.33
2017-10-03T17:10:41.367Z,2.40
2017-10-03T17:13:07.665Z,2.57
2017-10-03T17:15:33.942Z,2.33
2017-10-03T17:18:00.973Z,2.10
2017-10-03T17:20:27.262Z,2.33
2017-10-03T17:22:53.535Z,2.03
2017-10-03T17:25:19.820Z,2.17
2017-10-03T17:27:46.119Z,2.20
2017-10-03T17:30:13.163Z,2.20
2017-10-03T17:32:40.206Z,2.30
2017-10-03T17:35:07.216Z,2.10
2017-10-03T17:37:35.035Z,1.67
2017-10-03T17:40:02.063Z,2.30
2017-10-03T17:42:29.091Z,2.20
2017-10-03T17:44:55.422Z,2.17
2017-10-03T17:47:22.157Z,1.60
2017-10-03T17:49:48.599Z,2.10
2017-10-03T17:52:14.870Z,1.70
2017-10-03T17:54:41.157Z,2.50
2017-10-03T17:57:07.444Z,2.03
2017-10-03T17:59:33.720Z,2.10
2017-10-03T18:02:00.772Z,2.37
2017-10-03T18:04:27.822Z,2.40
2017-10-03T18:06:54.096Z,1.93
2017-10-03T18:09:20.382Z,2.30
2017-10-03T18:11:47.405Z,2.20
2017-10-03T18:14:20.871Z,2.50
2017-10-03T18:16:47.170Z,2.63
2017-10-03T18:19:14.210Z,2.00
2017-10-03T18:21:41.230Z,2.57
2017-10-03T18:24:07.535Z,2.50
2017-10-03T18:26:33.799Z,2.30
2017-10-03T18:29:00.089Z,2.17
2017-10-03T18:31:26.379Z,2.37
2017-10-03T18:33:53.411Z,2.70
2017-10-03T18:36:20.429Z,2.40
2017-10-03T18:38:46.703Z,2.03
2017-10-03T18:41:13.721Z,2.70
2017-10-03T18:43:40.002Z,2.03
2017-10-03T18:46:07.153Z,2.73
2017-10-03T18:48:34.439Z,2.23
2017-10-03T18:51:00.937Z,2.10
2017-10-03T18:53:27.225Z,2.10
2017-10-03T18:55:54.297Z,1.90
2017-10-03T18:58:20.576Z,3.10
2017-10-03T19:00:46.857Z,2.50
2017-10-03T19:03:13.158Z,2.37
2017-10-03T19:05:40.191Z,2.17
2017-10-03T19:08:06.468Z,2.63
2017-10-03T19:10:32.763Z,3.17
2017-10-03T19:12:59.826Z,2.30
2017-10-03T19:15:26.866Z,2.67
2017-10-03T19:17:53.941Z,2.27
2017-10-03T19:20:20.229Z,3.20
2017-10-03T19:22:46.500Z,2.10
2017-10-03T19:25:12.777Z,2.50
2017-10-03T19:27:39.062Z,2.13
2017-10-03T19:30:05.369Z,2.70
2017-10-03T19:32:31.680Z,2.53
2017-10-03T19:34:58.742Z,2.43
2017-10-03T19:37:25.773Z,2.60
2017-10-03T19:39:52.806Z,2.17
2017-10-03T19:42:19.092Z,2.43
2017-10-03T19:44:45.421Z,2.77
2017-10-03T19:47:11.708Z,2.20
2017-10-03T19:49:37.981Z,2.80
2017-10-03T19:52:04.273Z,2.70
2017-10-03T19:54:31.291Z,2.27
2017-10-03T19:56:57.589Z,3.07
2017-10-03T19:59:23.893Z,2.90
2017-10-03T20:01:50.961Z,2.20
2017-10-03T20:04:17.269Z,2.80
2017-10-03T20:06:44.297Z,3.40
2017-10-03T20:09:11.337Z,2.50
2017-10-03T20:11:37.621Z,2.90
2017-10-03T20:14:03.907Z,2.40
2017-10-03T20:16:30.936Z,2.57
2017-10-03T20:18:57.237Z,2.20
2017-10-03T20:21:23.853Z,3.07
2017-10-03T20:23:50.885Z,2.57
2017-10-03T20:26:17.939Z,3.03
2017-10-03T20:28:44.230Z,2.33
2017-10-03T20:31:10.510Z,2.90
2017-10-03T20:33:36.809Z,3.07
2017-10-03T20:36:03.873Z,2.63
2017-10-03T20:38:30.178Z,3.37
2017-10-03T20:40:57.203Z,2.60
2017-10-03T20:43:23.488Z,3.10
2017-10-03T20:45:50.496Z,2.70
2017-10-03T20:48:16.765Z,2.47
2017-10-03T20:50:43.054Z,2.57
2017-10-03T20:53:10.092Z,3.00
2017-10-03T20:55:37.133Z,3.10
2017-10-03T20:58:03.416Z,3.20
2017-10-03T21:00:29.701Z,3.10
2017-10-03T21:02:55.993Z,3.30
2017-10-03T21:05:22.273Z,2.93
2017-10-03T21:07:49.276Z,2.90
2017-10-03T21:10:15.567Z,3.30
2017-10-03T21:12:41.855Z,2.87
2017-10-03T21:15:08.163Z,2.83
2017-10-03T21:17:34.445Z,2.90
2017-10-03T21:20:00.759Z,2.73
2017-10-03T21:22:27.048Z,2.80
2017-10-03T21:24:53.333Z,4.27
2017-10-03T21:27:19.635Z,2.53
2017-10-03T21:29:45.915Z,2.53
2017-10-03T21:32:12.205Z,3.60
2017-10-03T21:34:39.266Z,2.67
2017-10-03T21:37:06.318Z,3.20
2017-10-03T21:39:32.664Z,2.40
2017-10-03T21:42:11.903Z,3.20
2017-10-03T21:44:38.895Z,2.30
2017-10-03T21:47:05.229Z,2.57
2017-10-03T21:49:31.527Z,2.50
2017-10-03T21:51:57.812Z,2.50
2017-10-03T21:54:24.842Z,2.50
2017-10-03T21:56:51.122Z,3.57
2017-10-03T21:59:17.399Z,2.30
2017-10-03T22:01:43.699Z,2.90
2017-10-03T22:04:09.997Z,2.30
2017-10-03T22:06:36.302Z,2.80
2017-10-03T22:09:03.374Z,2.83
2017-10-03T22:11:29.662Z,2.30
2017-10-03T22:13:56.690Z,2.57
2017-10-03T22:16:22.966Z,3.00
2017-10-03T22:18:49.283Z,2.30
2017-10-03T22:21:16.300Z,2.80
2017-10-03T22:23:42.607Z,2.57
2017-10-03T22:26:08.943Z,3.70
2017-10-03T22:28:35.235Z,2.67
2017-10-03T22:31:01.538Z,2.53
2017-10-03T22:33:28.597Z,2.70
2017-10-03T22:35:55.608Z,2.57
2017-10-03T22:38:21.902Z,2.73
2017-10-03T22:40:48.205Z,2.90
2017-10-03T22:43:15.261Z,3.80
2017-10-03T22:45:41.549Z,2.83
2017-10-03T22:48:07.863Z,2.63
2017-10-03T22:50:35.162Z,3.17
2017-10-03T22:53:02.187Z,2.30
2017-10-03T22:55:28.445Z,2.40
2017-10-03T22:57:55.458Z,2.70
2017-10-03T23:00:21.752Z,2.83
2017-10-03T23:02:48.050Z,2.97
2017-10-03T23:05:14.348Z,2.90
2017-10-03T23:07:40.647Z,3.10
2017-10-03T23:10:06.950Z,2.90
2017-10-03T23:12:33.247Z,2.90
2017-10-03T23:15:00.288Z,3.10
2017-10-03T23:17:27.323Z,3.37
2017-10-03T23:19:53.613Z,3.40
2017-10-03T23:22:19.892Z,3.07
2017-10-03T23:24:46.947Z,3.17
2017-10-03T23:27:13.233Z,3.07
2017-10-03T23:29:39.548Z,3.07
2017-10-03T23:32:05.827Z,2.40
2017-10-03T23:34:32.102Z,2.80
2017-10-03T23:36:58.402Z,3.17
2017-10-03T23:39:25.411Z,2.90
2017-10-03T23:41:51.715Z,2.93
2017-10-03T23:44:18.037Z,3.00
2017-10-03T23:46:44.330Z,2.40
2017-10-03T23:49:11.415Z,3.03
2017-10-03T23:51:37.698Z,2.70
2017-10-03T23:54:03.992Z,2.80
2017-10-03T23:56:31.101Z,3.00
2017-10-03T23:58:58.111Z,3.20
